createdAt,value
2024-03-15T00:01:24.558Z,11.70
2024-03-15T00:03:52.852Z,11.66
2024-03-15T00:06:21.230Z,11.63
2024-03-15T00:08:50.776Z,11.60
2024-03-15T00:11:19.696Z,11.61
2024-03-15T00:13:48.456Z,11.59
2024-03-15T00:16:16.970Z,11.57
2024-03-15T00:18:45.674Z,11.52
2024-03-15T00:21:18.467Z,11.53
2024-03-15T00:23:46.788Z,11.51
2024-03-15T00:26:15.319Z,11.50
2024-03-15T00:28:43.350Z,11.49
2024-03-15T00:31:11.957Z,11.51
2024-03-15T00:33:40.179Z,11.51
2024-03-15T00:36:08.587Z,11.47
2024-03-15T00:38:36.902Z,11.46
2024-03-15T00:41:05.545Z,11.43
2024-03-15T00:43:33.800Z,11.45
2024-03-15T00:46:02.226Z,11.41
2024-03-15T00:48:32.125Z,11.39
2024-03-15T00:51:00.946Z,11.37
2024-03-15T00:53:31.971Z,11.41
2024-03-15T00:56:00.188Z,11.41
2024-03-15T00:58:28.286Z,11.38
2024-03-15T01:00:56.732Z,11.37
2024-03-15T01:03:26.950Z,11.35
2024-03-15T01:05:56.868Z,11.36
2024-03-15T01:08:25.613Z,11.34
2024-03-15T01:10:54.940Z,11.32
2024-03-15T01:13:23.258Z,11.29
2024-03-15T01:15:52.102Z,11.28
2024-03-15T01:18:20.530Z,11.27
2024-03-15T01:20:48.474Z,11.28
2024-03-15T01:23:16.635Z,11.26
2024-03-15T01:25:45.538Z,11.27
2024-03-15T01:28:16.088Z,11.29
2024-03-15T01:30:46.650Z,11.28
2024-03-15T01:33:15.049Z,11.27
2024-03-15T01:35:45.709Z,11.28
2024-03-15T01:38:14.788Z,11.29
2024-03-15T01:40:44.472Z,11.30
2024-03-15T01:43:16.355Z,11.31
2024-03-15T01:45:44.998Z,11.32
2024-03-15T01:48:15.342Z,11.29
2024-03-15T01:50:45.509Z,11.25
2024-03-15T01:53:13.820Z,11.22
2024-03-15T01:55:42.131Z,11.22
2024-03-15T01:58:10.410Z,11.24
2024-03-15T02:00:43.413Z,11.24
2024-03-15T02:03:11.469Z,11.23
2024-03-15T02:05:41.307Z,11.25
2024-03-15T02:08:14.449Z,11.24
2024-03-15T02:10:43.612Z,11.29
2024-03-15T02:13:11.816Z,11.25
2024-03-15T02:15:41.337Z,11.28
2024-03-15T02:18:09.876Z,11.23
2024-03-15T02:20:39.232Z,11.24
2024-03-15T02:23:10.026Z,11.24
2024-03-15T02:25:51.868Z,11.28
2024-03-15T02:28:20.095Z,11.26
2024-03-15T02:30:48.899Z,11.24
2024-03-15T02:33:17.666Z,11.26
2024-03-15T02:35:46.634Z,11.21
2024-03-15T02:38:17.421Z,11.20
2024-03-15T02:40:47.198Z,11.25
2024-03-15T02:43:18.971Z,11.22
2024-03-15T02:45:47.079Z,11.24
2024-03-15T02:48:16.880Z,11.24
2024-03-15T02:50:47.267Z,11.28
2024-03-15T02:53:16.292Z,11.26
2024-03-15T02:55:45.516Z,11.25
2024-03-15T02:58:14.998Z,11.23
2024-03-15T03:00:43.182Z,11.23
2024-03-15T03:03:12.940Z,11.26
2024-03-15T03:05:41.985Z,11.27
2024-03-15T03:08:10.452Z,11.26
2024-03-15T03:10:38.466Z,11.34
2024-03-15T03:13:06.665Z,11.30
2024-03-15T03:15:34.847Z,11.31
2024-03-15T03:18:04.188Z,11.28
2024-03-15T03:20:34.452Z,11.28
2024-03-15T03:23:02.734Z,11.25
2024-03-15T03:25:32.489Z,11.26
2024-03-15T03:28:01.441Z,11.26
2024-03-15T03:30:29.526Z,11.26
2024-03-15T03:32:59.319Z,11.25
2024-03-15T03:35:27.600Z,11.18
2024-03-15T03:37:55.685Z,11.18
2024-03-15T03:40:26.313Z,11.14
2024-03-15T03:42:54.953Z,11.20
2024-03-15T03:45:24.257Z,11.18
2024-03-15T03:47:54.148Z,11.14
2024-03-15T03:50:23.767Z,11.10
2024-03-15T03:52:52.204Z,11.10
2024-03-15T03:55:20.629Z,11.11
2024-03-15T03:57:49.408Z,11.10
2024-03-15T04:00:18.675Z,11.14
2024-03-15T04:02:51.434Z,11.11
2024-03-15T04:05:20.815Z,11.12
2024-03-15T04:07:49.757Z,11.13
2024-03-15T04:10:18.036Z,11.07
2024-03-15T04:12:46.982Z,11.05
2024-03-15T04:15:25.238Z,11.08
2024-03-15T04:18:01.824Z,11.05
2024-03-15T04:20:31.972Z,11.05
2024-03-15T04:23:01.445Z,11.08
2024-03-15T04:25:32.137Z,11.07
2024-03-15T04:28:00.176Z,11.08
2024-03-15T04:30:31.550Z,11.01
2024-03-15T04:32:59.783Z,11.01
2024-03-15T04:35:29.798Z,11.00
2024-03-15T04:37:58.075Z,10.95
2024-03-15T04:40:27.518Z,10.91
2024-03-15T04:42:58.140Z,10.88
2024-03-15T04:45:26.842Z,10.86
2024-03-15T04:47:56.061Z,10.83
2024-03-15T04:50:24.362Z,10.84
2024-03-15T04:52:53.640Z,10.86
2024-03-15T04:55:22.943Z,10.87
2024-03-15T04:57:52.574Z,10.92
2024-03-15T05:00:22.832Z,10.89
2024-03-15T05:02:53.154Z,10.87
2024-03-15T05:05:25.098Z,10.85
2024-03-15T05:07:55.037Z,10.86
2024-03-15T05:10:24.947Z,10.89
2024-03-15T05:12:54.653Z,10.87
2024-03-15T05:15:23.385Z,10.85
2024-03-15T05:17:51.708Z,10.83
2024-03-15T05:20:20.129Z,10.86
2024-03-15T05:22:48.417Z,10.86
2024-03-15T05:25:19.337Z,10.80
2024-03-15T05:27:48.452Z,10.80
2024-03-15T05:30:19.449Z,10.80
2024-03-15T05:32:48.524Z,10.81
2024-03-15T05:35:19.908Z,10.85
2024-03-15T05:37:48.078Z,10.84
2024-03-15T05:40:19.317Z,10.83
2024-03-15T05:42:47.943Z,10.88
2024-03-15T05:45:16.322Z,10.92
2024-03-15T05:47:45.047Z,10.90
2024-03-15T05:50:13.518Z,10.93
2024-03-15T05:52:43.193Z,10.94
2024-03-15T05:55:13.231Z,10.93
2024-03-15T05:57:43.099Z,10.93
2024-03-15T06:00:17.175Z,10.98
2024-03-15T06:02:46.138Z,10.97
2024-03-15T06:05:14.707Z,10.98
2024-03-15T06:07:43.566Z,10.94
2024-03-15T06:10:11.574Z,10.95
2024-03-15T06:12:40.085Z,10.95
2024-03-15T06:15:10.921Z,10.99
2024-03-15T06:17:39.720Z,11.04
2024-03-15T06:20:11.815Z,10.99
2024-03-15T06:22:40.963Z,11.04
2024-03-15T06:25:09.268Z,11.07
2024-03-15T06:27:37.807Z,11.11
2024-03-15T06:30:07.063Z,11.17
2024-03-15T06:32:40.091Z,11.20
2024-03-15T06:35:21.181Z,11.27
2024-03-15T06:37:54.977Z,11.26
2024-03-15T06:40:32.509Z,11.24
2024-03-15T06:43:15.344Z,11.24
2024-03-15T06:45:58.902Z,11.21
2024-03-15T06:48:45.233Z,11.25
2024-03-15T06:51:31.354Z,11.22
2024-03-15T06:54:02.820Z,11.24
2024-03-15T06:56:31.026Z,11.34
2024-03-15T06:58:59.382Z,11.39
2024-03-15T07:01:29.514Z,11.45
2024-03-15T07:04:01.105Z,11.51
2024-03-15T07:06:30.865Z,11.49
2024-03-15T07:09:00.851Z,11.56
2024-03-15T07:11:33.768Z,11.60
2024-03-15T07:14:06.483Z,11.66
2024-03-15T07:16:34.588Z,11.70
2024-03-15T07:19:02.628Z,11.72
2024-03-15T07:21:33.754Z,11.79
2024-03-15T07:24:02.054Z,11.88
2024-03-15T07:26:32.496Z,11.96
2024-03-15T07:29:00.617Z,12.01
2024-03-15T07:31:29.629Z,12.10
2024-03-15T07:33:57.885Z,12.12
2024-03-15T07:36:29.225Z,12.16
2024-03-15T07:38:57.648Z,12.21
2024-03-15T07:41:33.404Z,12.21
2024-03-15T07:44:04.905Z,12.32
2024-03-15T07:46:35.649Z,12.29
2024-03-15T07:49:04.789Z,12.31
2024-03-15T07:51:33.786Z,12.37
2024-03-15T07:54:02.189Z,12.28
2024-03-15T07:56:31.494Z,12.29
2024-03-15T07:59:00.424Z,12.37
2024-03-15T08:01:29.271Z,12.43
2024-03-15T08:03:58.038Z,12.51
2024-03-15T08:06:27.276Z,12.61
2024-03-15T08:08:55.900Z,12.75
2024-03-15T08:11:25.939Z,12.80
2024-03-15T08:13:53.907Z,12.80
2024-03-15T08:16:25.360Z,12.76
2024-03-15T08:18:54.863Z,12.69
2024-03-15T08:21:26.031Z,12.52
2024-03-15T08:23:54.464Z,12.38
2024-03-15T08:26:23.442Z,12.31
2024-03-15T08:28:52.152Z,12.27
2024-03-15T08:31:20.769Z,12.23
2024-03-15T08:33:49.518Z,12.20
2024-03-15T08:36:18.303Z,12.24
2024-03-15T08:38:46.855Z,12.19
2024-03-15T08:41:15.391Z,12.20
2024-03-15T08:43:44.415Z,12.16
2024-03-15T08:46:12.911Z,12.04
2024-03-15T08:48:41.334Z,12.00
2024-03-15T08:51:10.252Z,11.94
2024-03-15T08:53:39.411Z,11.95
2024-03-15T08:56:07.570Z,11.90
2024-03-15T08:58:36.388Z,11.86
2024-03-15T09:01:07.355Z,11.83
2024-03-15T09:03:39.657Z,11.86
2024-03-15T09:06:09.654Z,11.85
2024-03-15T09:08:38.204Z,11.85
2024-03-15T09:11:24.283Z,11.85
2024-03-15T09:14:40.881Z,11.85
2024-03-15T09:17:13.847Z,11.84
2024-03-15T09:19:42.298Z,11.85
2024-03-15T09:22:13.754Z,11.87
2024-03-15T09:24:42.214Z,11.85
2024-03-15T09:27:10.970Z,11.88
2024-03-15T09:29:40.574Z,11.93
2024-03-15T09:32:14.598Z,11.93
2024-03-15T09:34:50.695Z,11.90
2024-03-15T09:37:22.956Z,11.94
2024-03-15T09:39:53.674Z,11.94
2024-03-15T09:42:22.946Z,11.93
2024-03-15T09:44:53.163Z,11.96
2024-03-15T09:47:21.673Z,12.02
2024-03-15T09:49:52.100Z,12.07
2024-03-15T09:52:20.976Z,12.13
2024-03-15T09:54:49.151Z,12.25
2024-03-15T09:57:18.716Z,12.32
2024-03-15T09:59:49.256Z,12.23
2024-03-15T10:02:24.621Z,12.22
2024-03-15T10:04:55.915Z,12.26
2024-03-15T10:07:24.874Z,12.32
2024-03-15T10:09:56.011Z,12.42
2024-03-15T10:12:24.643Z,12.44
2024-03-15T10:14:54.882Z,12.50
2024-03-15T10:17:24.348Z,12.50
2024-03-15T10:19:52.943Z,12.51
2024-03-15T10:22:23.034Z,12.55
2024-03-15T10:24:55.101Z,12.45
2024-03-15T10:27:23.800Z,12.41
2024-03-15T10:29:51.894Z,12.45
2024-03-15T10:32:20.011Z,12.52
2024-03-15T10:34:49.848Z,12.60
2024-03-15T10:37:18.916Z,12.55
2024-03-15T10:39:47.603Z,12.55
2024-03-15T10:42:17.860Z,12.60
2024-03-15T10:44:47.677Z,12.55
2024-03-15T10:47:16.362Z,12.62
2024-03-15T10:49:46.242Z,12.56
2024-03-15T10:52:18.030Z,12.54
2024-03-15T10:54:48.300Z,12.56
2024-03-15T10:57:16.373Z,12.54
2024-03-15T10:59:45.956Z,12.54
2024-03-15T11:02:16.809Z,12.59
2024-03-15T11:04:47.002Z,12.64
2024-03-15T11:07:16.419Z,12.56
2024-03-15T11:09:45.080Z,12.56
2024-03-15T11:12:18.849Z,12.52
2024-03-15T11:14:47.626Z,12.55
2024-03-15T11:17:22.693Z,12.57
2024-03-15T11:19:52.467Z,12.56
2024-03-15T11:22:24.135Z,12.54
2024-03-15T11:24:53.988Z,12.57
2024-03-15T11:27:23.129Z,12.67
2024-03-15T11:29:59.812Z,12.79
2024-03-15T11:32:27.898Z,12.85
2024-03-15T11:34:59.248Z,13.03
2024-03-15T11:37:27.846Z,13.26
2024-03-15T11:40:01.306Z,13.34
2024-03-15T11:42:29.637Z,13.50
2024-03-15T11:44:58.004Z,13.66
2024-03-15T11:47:28.304Z,13.68
2024-03-15T11:49:57.757Z,13.71
2024-03-15T11:52:25.907Z,13.60
2024-03-15T11:54:56.921Z,13.52
2024-03-15T11:57:25.357Z,13.45
2024-03-15T11:59:54.227Z,13.30
2024-03-15T12:02:22.682Z,13.21
2024-03-15T12:04:50.977Z,13.23
2024-03-15T12:07:20.366Z,13.18
2024-03-15T12:09:49.371Z,13.17
2024-03-15T12:12:19.868Z,13.14
2024-03-15T12:14:47.994Z,13.20
2024-03-15T12:17:18.236Z,13.22
2024-03-15T12:19:46.298Z,13.44
2024-03-15T12:22:15.224Z,13.55
2024-03-15T12:24:44.491Z,13.57
2024-03-15T12:27:13.416Z,13.52
2024-03-15T12:29:42.154Z,13.46
2024-03-15T12:32:10.223Z,13.30
2024-03-15T12:34:38.565Z,13.24
2024-03-15T12:37:09.645Z,13.19
2024-03-15T12:39:37.994Z,13.14
2024-03-15T12:42:06.579Z,13.11
2024-03-15T12:44:34.727Z,13.06
2024-03-15T12:47:03.058Z,13.00
2024-03-15T12:49:31.307Z,12.91
2024-03-15T12:51:59.783Z,12.96
2024-03-15T12:54:28.509Z,13.07
2024-03-15T12:56:57.564Z,13.12
2024-03-15T12:59:26.588Z,13.20
2024-03-15T13:01:54.809Z,13.27
2024-03-15T13:04:23.066Z,13.38
2024-03-15T13:06:52.526Z,13.34
2024-03-15T13:09:22.681Z,13.32
2024-03-15T13:11:51.349Z,13.37
2024-03-15T13:14:19.789Z,13.51
2024-03-15T13:16:48.337Z,13.71
2024-03-15T13:19:18.755Z,13.92
2024-03-15T13:21:47.427Z,14.25
2024-03-15T13:24:16.149Z,14.39
2024-03-15T13:26:44.313Z,14.57
2024-03-15T13:29:14.049Z,14.91
2024-03-15T13:31:42.214Z,15.25
2024-03-15T13:34:11.002Z,15.59
2024-03-15T13:36:40.879Z,15.70
2024-03-15T13:39:21.687Z,15.44
2024-03-15T13:41:52.357Z,15.29
2024-03-15T13:44:24.593Z,15.00
2024-03-15T13:46:53.066Z,14.68
2024-03-15T13:49:21.130Z,14.46
2024-03-15T13:51:49.386Z,14.35
2024-03-15T13:54:17.538Z,14.36
2024-03-15T13:56:47.415Z,14.20
2024-03-15T13:59:15.769Z,14.14
2024-03-15T14:01:46.672Z,14.04
2024-03-15T14:04:17.382Z,14.04
2024-03-15T14:06:45.386Z,14.18
2024-03-15T14:09:14.032Z,14.19
2024-03-15T14:11:42.073Z,14.27
2024-03-15T14:14:10.117Z,14.26
2024-03-15T14:16:38.718Z,14.31
2024-03-15T14:19:07.296Z,14.29
2024-03-15T14:21:36.236Z,14.30
2024-03-15T14:24:04.807Z,14.26
2024-03-15T14:26:33.424Z,14.24
2024-03-15T14:29:01.542Z,14.14
2024-03-15T14:31:29.734Z,14.17
2024-03-15T14:33:57.921Z,14.13
2024-03-15T14:36:29.696Z,14.10
2024-03-15T14:39:01.303Z,14.32
2024-03-15T14:41:29.672Z,14.26
2024-03-15T14:43:57.941Z,14.29
2024-03-15T14:46:26.850Z,14.33
2024-03-15T14:48:55.618Z,14.46
2024-03-15T14:51:25.870Z,14.62
2024-03-15T14:53:54.121Z,14.72
2024-03-15T14:56:22.245Z,14.78
2024-03-15T14:58:50.318Z,14.65
2024-03-15T15:01:20.002Z,14.56
2024-03-15T15:03:48.874Z,14.49
2024-03-15T15:06:17.337Z,14.48
2024-03-15T15:08:47.400Z,14.57
2024-03-15T15:11:15.940Z,14.65
2024-03-15T15:13:46.168Z,14.56
2024-03-15T15:16:14.279Z,14.45
2024-03-15T15:18:43.237Z,14.30
2024-03-15T15:21:18.931Z,14.36
2024-03-15T15:23:47.407Z,14.35
2024-03-15T15:26:16.508Z,14.35
2024-03-15T15:28:47.116Z,14.34
2024-03-15T15:31:15.347Z,14.28
2024-03-15T15:33:45.942Z,14.18
2024-03-15T15:36:14.404Z,14.08
2024-03-15T15:38:44.648Z,14.14
2024-03-15T15:41:13.500Z,14.14
2024-03-15T15:43:42.474Z,14.15
2024-03-15T15:46:11.680Z,14.18
2024-03-15T15:48:40.045Z,14.10
2024-03-15T15:51:12.302Z,14.18
2024-03-15T15:53:45.177Z,14.23
2024-03-15T15:56:13.396Z,14.81
2024-03-15T15:58:45.906Z,15.53
2024-03-15T16:01:14.624Z,15.76
2024-03-15T16:03:43.680Z,15.43
2024-03-15T16:06:11.827Z,15.12
2024-03-15T16:08:44.695Z,14.78
2024-03-15T16:11:18.225Z,14.55
2024-03-15T16:13:46.337Z,14.37
2024-03-15T16:16:14.522Z,14.27
2024-03-15T16:18:42.665Z,14.15
2024-03-15T16:21:12.962Z,13.99
2024-03-15T16:23:42.078Z,13.87
2024-03-15T16:26:10.968Z,13.88
2024-03-15T16:28:38.984Z,13.89
2024-03-15T16:31:07.827Z,13.84
2024-03-15T16:33:36.028Z,13.75
2024-03-15T16:36:04.963Z,13.68
2024-03-15T16:38:33.198Z,13.71
2024-03-15T16:41:01.916Z,13.65
2024-03-15T16:43:30.346Z,13.63
2024-03-15T16:45:58.929Z,13.60
2024-03-15T16:48:27.524Z,13.55
2024-03-15T16:50:56.319Z,13.52
2024-03-15T16:53:24.726Z,13.51
2024-03-15T16:55:53.850Z,13.48
2024-03-15T16:58:25.729Z,13.46
2024-03-15T17:00:55.692Z,13.47
2024-03-15T17:03:23.921Z,13.47
2024-03-15T17:05:53.420Z,13.46
2024-03-15T17:08:21.915Z,13.42
2024-03-15T17:10:50.920Z,13.43
2024-03-15T17:13:19.837Z,13.40
2024-03-15T17:15:53.837Z,13.26
2024-03-15T17:18:23.079Z,12.91
2024-03-15T17:20:51.611Z,12.43
2024-03-15T17:23:21.867Z,12.07
2024-03-15T17:25:54.481Z,11.88
2024-03-15T17:28:23.955Z,11.86
2024-03-15T17:30:54.131Z,11.87
2024-03-15T17:33:22.850Z,11.83
2024-03-15T17:35:51.611Z,11.77
2024-03-15T17:38:21.087Z,11.77
2024-03-15T17:40:51.821Z,11.73
2024-03-15T17:43:20.493Z,11.74
2024-03-15T17:45:50.450Z,11.76
2024-03-15T17:48:18.963Z,11.71
2024-03-15T17:50:47.656Z,11.70
2024-03-15T17:53:17.131Z,11.72
2024-03-15T17:55:46.448Z,11.70
2024-03-15T17:58:15.953Z,11.73
2024-03-15T18:00:46.203Z,11.72
2024-03-15T18:03:14.715Z,11.74
2024-03-15T18:05:42.862Z,11.79
2024-03-15T18:08:11.173Z,11.79
2024-03-15T18:10:39.638Z,11.75
2024-03-15T18:13:07.738Z,11.77
2024-03-15T18:15:35.981Z,11.72
2024-03-15T18:18:04.140Z,11.65
2024-03-15T18:20:32.625Z,11.59
2024-03-15T18:23:00.613Z,11.56
2024-03-15T18:25:30.053Z,11.53
2024-03-15T18:28:00.129Z,11.51
2024-03-15T18:30:28.329Z,11.47
2024-03-15T18:32:56.640Z,11.45
2024-03-15T18:35:25.387Z,11.41
2024-03-15T18:37:55.900Z,11.39
2024-03-15T18:40:27.357Z,11.38
2024-03-15T18:42:56.419Z,11.37
2024-03-15T18:45:24.471Z,11.32
2024-03-15T18:47:53.820Z,11.30
2024-03-15T18:50:23.082Z,11.32
2024-03-15T18:52:52.421Z,11.26
2024-03-15T18:55:21.007Z,11.22
2024-03-15T18:57:50.072Z,11.18
2024-03-15T19:00:23.724Z,11.17
2024-03-15T19:02:54.449Z,11.14
2024-03-15T19:05:22.522Z,11.13
2024-03-15T19:07:51.064Z,11.10
2024-03-15T19:10:20.230Z,11.04
2024-03-15T19:12:50.038Z,11.01
2024-03-15T19:15:18.439Z,10.99
2024-03-15T19:17:47.162Z,10.95
2024-03-15T19:20:16.205Z,10.93
2024-03-15T19:22:44.264Z,10.91
2024-03-15T19:25:13.033Z,10.90
2024-03-15T19:27:41.601Z,10.92
2024-03-15T19:30:12.899Z,10.94
2024-03-15T19:32:41.285Z,10.94
2024-03-15T19:35:09.557Z,10.97
2024-03-15T19:37:41.760Z,10.94
2024-03-15T19:40:11.956Z,10.96
2024-03-15T19:42:40.545Z,10.96
2024-03-15T19:45:09.896Z,10.97
2024-03-15T19:47:37.986Z,10.96
2024-03-15T19:50:07.230Z,10.96
2024-03-15T19:52:35.837Z,10.97
2024-03-15T19:55:04.304Z,10.94
2024-03-15T19:57:32.919Z,10.95
2024-03-15T20:00:01.043Z,10.95
2024-03-15T20:02:29.343Z,10.94
2024-03-15T20:04:59.395Z,10.96
2024-03-15T20:07:27.686Z,10.96
2024-03-15T20:09:57.719Z,10.93
2024-03-15T20:12:27.585Z,10.90
2024-03-15T20:14:59.305Z,10.88
2024-03-15T20:17:27.559Z,10.86
2024-03-15T20:19:55.820Z,10.85
2024-03-15T20:22:24.148Z,10.86
2024-03-15T20:24:54.466Z,10.83
2024-03-15T20:27:22.793Z,10.84
2024-03-15T20:29:50.818Z,10.84
2024-03-15T20:32:19.932Z,10.81
2024-03-15T20:34:49.426Z,10.80
2024-03-15T20:37:17.883Z,10.78
2024-03-15T20:39:46.368Z,10.80
2024-03-15T20:42:15.399Z,10.74
2024-03-15T20:44:45.315Z,10.76
2024-03-15T20:47:13.852Z,10.80
2024-03-15T20:49:43.255Z,10.77
2024-03-15T20:52:11.611Z,10.77
2024-03-15T20:54:39.858Z,10.78
2024-03-15T20:57:08.164Z,10.76
2024-03-15T20:59:36.382Z,10.75
2024-03-15T21:02:12.195Z,10.78
2024-03-15T21:04:40.461Z,10.80
2024-03-15T21:07:08.901Z,10.82
2024-03-15T21:09:39.323Z,10.81
2024-03-15T21:12:10.261Z,10.79
2024-03-15T21:14:38.775Z,10.78
2024-03-15T21:17:06.888Z,10.81
2024-03-15T21:19:35.355Z,10.86
2024-03-15T21:22:04.231Z,10.88
2024-03-15T21:24:34.139Z,10.84
2024-03-15T21:27:02.407Z,10.80
2024-03-15T21:29:30.877Z,10.83
2024-03-15T21:31:58.884Z,10.84
2024-03-15T21:34:27.803Z,10.84
2024-03-15T21:36:58.326Z,10.85
2024-03-15T21:39:29.242Z,10.82
2024-03-15T21:41:58.824Z,10.83
2024-03-15T21:44:29.910Z,10.84
2024-03-15T21:46:58.407Z,10.86
2024-03-15T21:49:26.400Z,10.90
2024-03-15T21:51:57.030Z,10.86
2024-03-15T21:54:26.780Z,10.87
2024-03-15T21:56:55.055Z,10.90
2024-03-15T21:59:24.139Z,10.93
2024-03-15T22:01:55.058Z,10.90
2024-03-15T22:04:31.142Z,10.91
2024-03-15T22:07:00.085Z,10.95
2024-03-15T22:09:29.157Z,10.95
2024-03-15T22:11:59.349Z,10.93
2024-03-15T22:14:28.023Z,10.92
2024-03-15T22:16:56.783Z,10.93
2024-03-15T22:19:25.192Z,10.93
2024-03-15T22:21:53.548Z,10.93
2024-03-15T22:24:21.680Z,10.90
2024-03-15T22:26:50.506Z,10.84
2024-03-15T22:29:20.955Z,10.84
2024-03-15T22:31:49.969Z,10.88
2024-03-15T22:34:17.977Z,10.90
2024-03-15T22:36:47.186Z,10.90
2024-03-15T22:39:16.292Z,10.88
2024-03-15T22:41:46.868Z,10.88
2024-03-15T22:44:15.162Z,10.88
2024-03-15T22:46:44.554Z,10.89
2024-03-15T22:49:14.466Z,10.88
2024-03-15T22:51:43.170Z,10.87
2024-03-15T22:54:11.341Z,10.94
2024-03-15T22:56:39.732Z,10.92
2024-03-15T22:59:08.284Z,10.90
2024-03-15T23:01:39.101Z,10.92
2024-03-15T23:04:09.810Z,10.93
2024-03-15T23:06:38.931Z,10.92
2024-03-15T23:09:07.776Z,10.91
2024-03-15T23:11:35.838Z,10.92
2024-03-15T23:14:04.802Z,10.93
2024-03-15T23:16:34.394Z,10.90
2024-03-15T23:19:05.808Z,10.90
2024-03-15T23:21:34.584Z,10.92
2024-03-15T23:24:03.829Z,10.94
2024-03-15T23:26:38.988Z,10.96
2024-03-15T23:29:06.999Z,10.95
2024-03-15T23:31:35.053Z,10.94
2024-03-15T23:34:12.910Z,10.96
2024-03-15T23:36:41.503Z,10.93
2024-03-15T23:39:16.543Z,10.96
2024-03-15T23:41:44.782Z,10.92
2024-03-15T23:44:12.757Z,10.93
2024-03-15T23:46:44.827Z,10.88
2024-03-15T23:49:14.458Z,10.87
2024-03-15T23:51:44.354Z,10.87
2024-03-15T23:54:12.569Z,10.90
2024-03-15T23:56:41.282Z,10.88
2024-03-15T23:59:09.360Z,10.83
